Pagina principale
METAR-TAF:

METAR-TAF

Aeroporti :

Brno, Repubblica Ceca

latitudine: 49-09N, longitudine: 016-42E, altezza: 241 m

Osservazione

Il bollettino è stato emesso 41 minuti fa, alle 12:30 UTC
Vento 5 kt da direzioni variabili
Temperature 26°C
Umidità 54%
Pressione 1015 hPa
Visibilità 10 km o più
nessuna nube inferiore a 1500 m e nessun cumulonembo

METAR: LKTB 171230Z VRB05KT CAVOK 26/16 Q1015 NOSIG

Ora: 15:11 (13:11 UTC)

Previsione

Il bollettino è stato emesso 2 ore e 11 minuti fa, alle 11:00 UTC
Previsione valida dal 17 alle 12 UTC al 18 alle 12 UTC
Vento 2 kt da direzioni variabili
Visibilità 10 km o più
nessuna nube inferiore a 1500 m e nessun cumulonembo
Temporaneamente
dal 17 alle 12 UTC al 17 alle 18 UTC
Vento 6 kt da sud
Visibilità: 4000 m
Nubi sparse ad un'altezza di 3500 ft, Cumulo congesto.
rovesci di pioggia,

TAF: LKTB 171100Z 1712/1812 VRB02KT CAVOK TEMPO 1712/1718 18006KT 4000 SHRA SCT035TCU

Osservazioni e previsioni meteorologiche di più di 4000 aeroporti (messaggi METAR e TAF).

Le stazioni disponibili sono rappresentate dai dischi gialli e rossi sulla carta.

Puntare il mouse per vedere il nome della stazione.

Clicca sopra per visualizzare le osservazioni e previsioni meteorologiche.

Per cambiare la mappa : fare clic sui pulsanti verdi con una croce nera per ingrandire, il pulsante verde con un trattino per diminuire, o sulla freccia verde per le mappe adiacenti.


METAR-TAF: